createdAt,value
2023-03-24T00:00:32.903Z,13.90
2023-03-24T00:03:02.749Z,13.90
2023-03-24T00:05:30.849Z,13.90
2023-03-24T00:08:02.278Z,13.90
2023-03-24T00:10:30.733Z,13.80
2023-03-24T00:13:00.699Z,13.80
2023-03-24T00:15:28.119Z,13.70
2023-03-24T00:17:58.555Z,13.70
2023-03-24T00:20:26.769Z,13.70
2023-03-24T00:22:59.324Z,13.60
2023-03-24T00:25:29.396Z,13.60
2023-03-24T00:27:58.038Z,13.60
2023-03-24T00:30:26.443Z,13.60
2023-03-24T00:32:53.901Z,13.60
2023-03-24T00:35:22.001Z,13.60
2023-03-24T00:37:52.240Z,13.60
2023-03-24T00:40:21.446Z,13.60
2023-03-24T00:42:50.362Z,13.60
2023-03-24T00:45:20.189Z,13.60
2023-03-24T00:47:50.226Z,13.60
2023-03-24T00:50:26.992Z,13.60
2023-03-24T00:52:55.429Z,13.60
2023-03-24T00:55:23.140Z,13.70
2023-03-24T00:57:50.987Z,13.70
2023-03-24T01:00:26.409Z,13.60
2023-03-24T01:02:56.773Z,13.60
2023-03-24T01:05:28.125Z,13.60
2023-03-24T01:08:03.854Z,13.50
2023-03-24T01:10:34.895Z,13.50
2023-03-24T01:13:02.881Z,13.40
2023-03-24T01:15:33.673Z,13.40
2023-03-24T01:18:04.648Z,13.40
2023-03-24T01:20:33.366Z,13.40
2023-03-24T01:23:02.100Z,13.40
2023-03-24T01:25:30.663Z,13.40
2023-03-24T01:27:58.826Z,13.40
2023-03-24T01:30:27.508Z,13.40
2023-03-24T01:32:55.211Z,13.40
2023-03-24T01:35:28.385Z,13.40
2023-03-24T01:37:56.396Z,13.40
2023-03-24T01:40:29.709Z,13.30
2023-03-24T01:42:57.978Z,13.30
2023-03-24T01:45:40.696Z,13.30
2023-03-24T01:48:31.517Z,13.30
2023-03-24T01:51:10.976Z,13.30
2023-03-24T01:53:42.859Z,13.30
2023-03-24T01:56:10.943Z,13.30
2023-03-24T01:58:41.472Z,13.20
2023-03-24T02:01:08.577Z,13.20
2023-03-24T02:03:38.903Z,13.20
2023-03-24T02:06:06.691Z,13.20
2023-03-24T02:08:42.506Z,13.10
2023-03-24T02:11:10.153Z,13.10
2023-03-24T02:13:37.281Z,13.10
2023-03-24T02:16:30.769Z,13.10
2023-03-24T02:19:38.493Z,13.10
2023-03-24T02:22:34.884Z,13.10
2023-03-24T02:25:38.496Z,13.10
2023-03-24T02:28:27.322Z,13.10
2023-03-24T02:31:24.450Z,13.10
2023-03-24T02:34:00.491Z,13.10
2023-03-24T02:36:30.365Z,13.00
2023-03-24T02:39:31.065Z,13.00
2023-03-24T02:42:29.800Z,13.00
2023-03-24T02:45:15.255Z,13.00
2023-03-24T02:47:51.797Z,13.00
2023-03-24T02:51:06.809Z,13.00
2023-03-24T02:53:40.304Z,13.00
2023-03-24T02:56:25.933Z,12.90
2023-03-24T02:59:00.020Z,12.90
2023-03-24T03:01:33.207Z,12.80
2023-03-24T03:04:08.526Z,12.80
2023-03-24T03:06:40.404Z,12.80
2023-03-24T03:09:14.336Z,12.80
2023-03-24T03:11:46.468Z,12.80
2023-03-24T03:14:19.336Z,12.80
2023-03-24T03:17:00.093Z,12.80
2023-03-24T03:19:34.588Z,12.80
2023-03-24T03:22:04.444Z,12.90
2023-03-24T03:24:40.133Z,12.90
2023-03-24T03:27:29.064Z,12.90
2023-03-24T03:30:22.646Z,12.90
2023-03-24T03:33:09.679Z,13.00
2023-03-24T03:35:42.687Z,12.90
2023-03-24T03:38:22.844Z,12.90
2023-03-24T03:41:02.676Z,12.90
2023-03-24T03:43:31.778Z,12.90
2023-03-24T03:46:00.623Z,12.90
2023-03-24T03:48:29.378Z,12.90
2023-03-24T03:51:06.543Z,12.90
2023-03-24T03:53:51.914Z,12.80
2023-03-24T03:56:24.061Z,12.80
2023-03-24T03:58:51.199Z,12.80
2023-03-24T04:01:23.079Z,12.80
2023-03-24T04:04:07.066Z,12.80
2023-03-24T04:06:59.032Z,12.80
2023-03-24T04:09:34.250Z,12.80
2023-03-24T04:12:13.534Z,12.80
2023-03-24T04:14:40.523Z,12.80
2023-03-24T04:17:33.348Z,12.70
2023-03-24T04:20:26.933Z,12.80
2023-03-24T04:23:09.691Z,12.80
2023-03-24T04:25:41.040Z,12.80
2023-03-24T04:28:26.852Z,12.80
2023-03-24T04:31:19.140Z,12.80
2023-03-24T04:33:54.247Z,12.80
2023-03-24T04:36:54.552Z,12.80
2023-03-24T04:39:25.803Z,12.80
2023-03-24T04:41:54.419Z,12.80
2023-03-24T04:44:22.786Z,12.80
2023-03-24T04:46:52.108Z,12.80
2023-03-24T04:49:25.236Z,12.80
2023-03-24T04:51:53.349Z,12.80
2023-03-24T04:54:21.997Z,12.70
2023-03-24T04:56:52.102Z,12.60
2023-03-24T04:59:19.277Z,12.60
2023-03-24T05:01:52.711Z,12.60
2023-03-24T05:04:23.327Z,12.50
2023-03-24T05:06:50.540Z,12.50
2023-03-24T05:09:21.532Z,12.60
2023-03-24T05:11:49.823Z,12.50
2023-03-24T05:14:17.331Z,12.50
2023-03-24T05:16:44.582Z,12.50
2023-03-24T05:19:11.902Z,12.50
2023-03-24T05:21:38.943Z,12.60
2023-03-24T05:24:06.959Z,12.60
2023-03-24T05:26:34.574Z,12.60
2023-03-24T05:29:01.693Z,12.70
2023-03-24T05:31:28.747Z,12.70
2023-03-24T05:33:56.767Z,12.70
2023-03-24T05:36:23.896Z,12.70
2023-03-24T05:38:51.071Z,12.80
2023-03-24T05:41:18.047Z,12.80
2023-03-24T05:43:45.101Z,12.90
2023-03-24T05:46:12.222Z,13.00
2023-03-24T05:48:39.297Z,13.00
2023-03-24T05:51:06.560Z,13.10
2023-03-24T05:53:33.669Z,13.20
2023-03-24T05:56:00.743Z,13.20
2023-03-24T05:58:27.860Z,13.30
2023-03-24T06:00:54.965Z,13.30
2023-03-24T06:03:22.193Z,13.30
2023-03-24T06:05:51.013Z,13.30
2023-03-24T06:08:18.888Z,13.40
2023-03-24T06:10:45.935Z,13.40
2023-03-24T06:13:13.023Z,13.40
2023-03-24T06:15:43.120Z,13.40
2023-03-24T06:18:10.460Z,13.50
2023-03-24T06:20:37.518Z,13.50
2023-03-24T06:23:04.641Z,13.60
2023-03-24T06:25:33.736Z,13.60
2023-03-24T06:28:04.463Z,13.60
2023-03-24T06:30:31.596Z,13.70
2023-03-24T06:32:58.766Z,13.80
2023-03-24T06:35:26.049Z,13.80
2023-03-24T06:37:53.138Z,13.90
2023-03-24T06:40:20.196Z,13.90
2023-03-24T06:42:47.476Z,14.10
2023-03-24T06:45:14.497Z,14.10
2023-03-24T06:47:41.737Z,14.20
2023-03-24T06:50:09.577Z,14.30
2023-03-24T06:52:36.759Z,14.30
2023-03-24T06:55:04.714Z,14.40
2023-03-24T06:57:31.862Z,14.60
2023-03-24T06:59:58.873Z,14.70
2023-03-24T07:02:26.061Z,14.80
2023-03-24T07:04:54.205Z,14.90
2023-03-24T07:07:57.036Z,15.00
2023-03-24T07:10:10.590Z,15.00
2023-03-24T07:12:37.664Z,15.10
2023-03-24T07:15:04.974Z,15.10
2023-03-24T07:17:32.028Z,15.10
2023-03-24T07:19:59.271Z,15.20
2023-03-24T07:22:26.397Z,15.30
2023-03-24T07:24:54.331Z,15.30
2023-03-24T07:27:21.558Z,15.30
2023-03-24T07:29:48.576Z,15.40
2023-03-24T07:32:15.987Z,15.40
2023-03-24T07:34:43.999Z,15.50
2023-03-24T07:37:11.484Z,15.40
2023-03-24T07:39:38.481Z,15.40
2023-03-24T07:42:06.297Z,15.50
2023-03-24T07:44:33.479Z,15.40
2023-03-24T07:47:00.532Z,15.50
2023-03-24T07:49:27.996Z,15.50
2023-03-24T07:51:55.133Z,15.60
2023-03-24T07:54:22.146Z,15.70
2023-03-24T07:56:49.354Z,15.70
2023-03-24T07:59:17.527Z,15.80
2023-03-24T08:01:45.312Z,15.90
2023-03-24T08:04:14.376Z,16.00
2023-03-24T08:06:44.144Z,16.00
2023-03-24T08:09:11.982Z,16.00
2023-03-24T08:11:39.531Z,16.10
2023-03-24T08:14:07.453Z,16.10
2023-03-24T08:16:34.693Z,16.10
2023-03-24T08:19:01.848Z,16.20
2023-03-24T08:21:28.894Z,16.20
2023-03-24T08:23:55.944Z,16.30
2023-03-24T08:26:27.019Z,16.40
2023-03-24T08:28:54.309Z,16.50
2023-03-24T08:31:21.512Z,16.60
2023-03-24T08:33:48.683Z,16.70
2023-03-24T08:36:15.792Z,16.70
2023-03-24T08:38:42.878Z,16.80
2023-03-24T08:41:10.014Z,16.90
2023-03-24T08:43:37.874Z,16.90
2023-03-24T08:46:10.602Z,17.00
2023-03-24T08:48:41.310Z,17.10
2023-03-24T08:51:17.334Z,17.20
2023-03-24T08:53:44.808Z,17.30
2023-03-24T08:56:12.044Z,17.40
2023-03-24T08:58:39.266Z,17.50
2023-03-24T09:01:06.476Z,17.60
2023-03-24T09:03:33.595Z,17.60
2023-03-24T09:06:00.843Z,17.80
2023-03-24T09:08:28.041Z,17.90
2023-03-24T09:10:55.106Z,18.00
2023-03-24T09:13:22.394Z,18.10
2023-03-24T09:15:57.671Z,18.10
2023-03-24T09:18:25.896Z,18.20
2023-03-24T09:20:53.561Z,18.30
2023-03-24T09:23:21.740Z,18.40
2023-03-24T09:25:52.903Z,18.50
2023-03-24T09:28:21.227Z,18.60
2023-03-24T09:30:48.787Z,18.70
2023-03-24T09:33:16.462Z,18.70
2023-03-24T09:35:43.784Z,18.80
2023-03-24T09:38:13.814Z,18.80
2023-03-24T09:40:43.732Z,18.90
2023-03-24T09:43:52.359Z,18.90
2023-03-24T09:46:30.720Z,19.00
2023-03-24T09:48:58.575Z,18.90
2023-03-24T09:51:28.007Z,18.90
2023-03-24T09:54:07.831Z,18.90
2023-03-24T09:56:38.545Z,19.00
2023-03-24T09:59:11.496Z,19.10
2023-03-24T10:01:38.740Z,19.10
2023-03-24T10:04:16.618Z,19.10
2023-03-24T10:06:44.229Z,19.20
2023-03-24T10:09:19.458Z,19.30
2023-03-24T10:11:55.253Z,19.40
2023-03-24T10:14:27.920Z,19.40
2023-03-24T10:17:40.441Z,19.50
2023-03-24T10:20:26.440Z,19.60
2023-03-24T10:23:00.463Z,19.70
2023-03-24T10:25:37.570Z,19.80
2023-03-24T10:28:12.775Z,19.80
2023-03-24T10:30:44.943Z,19.90
2023-03-24T10:33:13.875Z,20.00
2023-03-24T10:36:10.077Z,20.10
2023-03-24T10:38:37.324Z,20.20
2023-03-24T10:41:05.304Z,20.30
2023-03-24T10:43:33.719Z,20.30
2023-03-24T10:46:02.901Z,20.30
2023-03-24T10:48:48.109Z,20.20
2023-03-24T10:51:19.644Z,20.30
2023-03-24T10:53:49.043Z,20.30
2023-03-24T10:56:38.400Z,20.30
2023-03-24T10:59:18.755Z,20.40
2023-03-24T11:01:46.267Z,20.50
2023-03-24T11:04:19.836Z,20.50
2023-03-24T11:07:04.605Z,20.50
2023-03-24T11:09:41.070Z,20.60
2023-03-24T11:12:22.739Z,20.60
2023-03-24T11:14:49.941Z,20.60
2023-03-24T11:17:20.059Z,20.70
2023-03-24T11:19:55.270Z,20.80
2023-03-24T11:22:23.381Z,20.90
2023-03-24T11:24:55.425Z,21.00
2023-03-24T11:27:22.599Z,21.10
2023-03-24T11:29:56.554Z,21.10
2023-03-24T11:32:30.181Z,21.20
2023-03-24T11:35:06.105Z,21.30
2023-03-24T11:37:36.286Z,21.40
2023-03-24T11:40:17.830Z,21.40
2023-03-24T11:43:04.146Z,21.50
2023-03-24T11:45:41.124Z,21.50
2023-03-24T11:48:26.811Z,21.50
2023-03-24T11:50:57.400Z,21.50
2023-03-24T11:53:45.040Z,21.40
2023-03-24T11:56:32.542Z,21.40
2023-03-24T11:59:11.659Z,21.40
2023-03-24T12:01:55.643Z,21.40
2023-03-24T12:04:34.905Z,21.40
2023-03-24T12:07:14.843Z,21.40
2023-03-24T12:09:47.686Z,21.40
2023-03-24T12:12:51.873Z,21.30
2023-03-24T12:15:40.399Z,21.30
2023-03-24T12:18:19.505Z,21.20
2023-03-24T12:21:15.349Z,21.20
2023-03-24T12:24:00.272Z,21.20
2023-03-24T12:26:30.145Z,21.20
2023-03-24T12:29:48.585Z,21.10
2023-03-24T12:32:36.922Z,21.20
2023-03-24T12:35:04.239Z,21.30
2023-03-24T12:37:57.964Z,21.30
2023-03-24T12:41:15.599Z,21.40
2023-03-24T12:43:48.385Z,21.50
2023-03-24T12:46:53.962Z,21.60
2023-03-24T12:49:33.581Z,21.60
2023-03-24T12:52:21.306Z,21.60
2023-03-24T12:55:06.402Z,21.60
2023-03-24T12:57:48.765Z,21.50
2023-03-24T13:00:21.000Z,21.50
2023-03-24T13:02:54.934Z,21.60
2023-03-24T13:05:28.929Z,21.70
2023-03-24T13:08:03.697Z,21.70
2023-03-24T13:10:41.101Z,21.80
2023-03-24T13:13:44.954Z,22.00
2023-03-24T13:16:23.314Z,22.00
2023-03-24T13:18:57.249Z,22.20
2023-03-24T13:21:26.851Z,22.30
2023-03-24T13:24:14.377Z,22.40
2023-03-24T13:27:03.236Z,22.60
2023-03-24T13:29:49.067Z,22.70
2023-03-24T13:32:25.633Z,22.80
2023-03-24T13:35:04.734Z,22.90
2023-03-24T13:37:51.946Z,22.80
2023-03-24T13:40:23.741Z,22.80
2023-03-24T13:43:20.939Z,22.80
2023-03-24T13:45:59.528Z,22.80
2023-03-24T13:48:32.627Z,22.60
2023-03-24T13:51:27.647Z,22.30
2023-03-24T13:54:07.230Z,22.30
2023-03-24T13:56:41.578Z,22.20
2023-03-24T13:59:25.106Z,22.00
2023-03-24T14:02:17.032Z,21.90
2023-03-24T14:05:22.347Z,21.80
2023-03-24T14:07:51.613Z,21.60
2023-03-24T14:10:21.056Z,21.50
2023-03-24T14:12:55.979Z,21.40
2023-03-24T14:15:34.900Z,21.30
2023-03-24T14:18:23.320Z,21.20
2023-03-24T14:21:11.099Z,21.10
2023-03-24T14:23:51.766Z,21.00
2023-03-24T14:26:21.778Z,20.90
2023-03-24T14:28:57.359Z,20.90
2023-03-24T14:31:29.442Z,20.80
2023-03-24T14:34:07.284Z,20.70
2023-03-24T14:36:41.038Z,20.60
2023-03-24T14:39:35.825Z,20.50
2023-03-24T14:42:28.752Z,20.40
2023-03-24T14:45:26.538Z,20.20
2023-03-24T14:48:01.529Z,20.00
2023-03-24T14:50:29.758Z,19.80
2023-03-24T14:53:03.511Z,19.60
2023-03-24T14:55:31.652Z,19.50
2023-03-24T14:58:03.875Z,19.40
2023-03-24T15:00:51.768Z,19.30
2023-03-24T15:03:50.501Z,19.20
2023-03-24T15:06:25.651Z,19.20
2023-03-24T15:08:55.119Z,19.20
2023-03-24T15:11:49.188Z,19.10
2023-03-24T15:14:25.692Z,19.00
2023-03-24T15:17:18.521Z,18.90
2023-03-24T15:19:49.499Z,18.90
2023-03-24T15:22:16.637Z,18.80
2023-03-24T15:24:46.791Z,18.60
2023-03-24T15:27:16.981Z,18.40
2023-03-24T15:29:46.223Z,18.20
2023-03-24T15:32:20.186Z,18.00
2023-03-24T15:34:55.099Z,17.90
2023-03-24T15:37:31.232Z,17.70
2023-03-24T15:40:05.575Z,17.60
2023-03-24T15:42:46.497Z,17.60
2023-03-24T15:45:33.330Z,17.50
2023-03-24T15:48:08.203Z,17.50
2023-03-24T15:50:38.562Z,17.40
2023-03-24T15:53:14.343Z,17.40
2023-03-24T15:55:43.810Z,17.30
2023-03-24T15:58:28.772Z,17.30
2023-03-24T16:01:02.741Z,17.30
2023-03-24T16:03:34.493Z,17.20
2023-03-24T16:06:02.791Z,17.10
2023-03-24T16:08:41.318Z,17.10
2023-03-24T16:11:12.175Z,17.10
2023-03-24T16:13:45.229Z,17.00
2023-03-24T16:16:15.823Z,17.00
2023-03-24T16:18:48.930Z,17.00
2023-03-24T16:21:28.493Z,16.90
2023-03-24T16:23:57.957Z,16.90
2023-03-24T16:26:27.900Z,16.90
2023-03-24T16:29:00.770Z,16.80
2023-03-24T16:31:35.939Z,16.80
2023-03-24T16:34:03.049Z,16.90
2023-03-24T16:36:30.330Z,16.80
2023-03-24T16:38:59.288Z,16.80
2023-03-24T16:41:26.604Z,16.80
2023-03-24T16:43:54.449Z,16.80
2023-03-24T16:46:27.743Z,16.80
2023-03-24T16:48:55.666Z,16.80
2023-03-24T16:51:23.210Z,16.70
2023-03-24T16:53:50.927Z,16.60
2023-03-24T16:56:20.688Z,16.60
2023-03-24T16:58:49.317Z,16.50
2023-03-24T17:01:33.750Z,16.40
2023-03-24T17:04:14.834Z,16.30
2023-03-24T17:06:44.928Z,16.20
2023-03-24T17:09:12.798Z,16.20
2023-03-24T17:11:50.677Z,16.10
2023-03-24T17:14:17.803Z,16.10
2023-03-24T17:16:46.621Z,16.00
2023-03-24T17:19:22.023Z,16.00
2023-03-24T17:21:50.613Z,16.00
2023-03-24T17:24:17.953Z,16.00
2023-03-24T17:26:45.813Z,15.90
2023-03-24T17:29:14.259Z,15.90
2023-03-24T17:31:43.454Z,15.80
2023-03-24T17:36:49.890Z,15.80
2023-03-24T17:39:18.617Z,15.80
2023-03-24T17:41:46.347Z,15.80
2023-03-24T17:44:13.900Z,15.80
2023-03-24T17:46:41.651Z,15.80
2023-03-24T17:49:09.087Z,15.80
2023-03-24T17:51:36.576Z,15.80
2023-03-24T17:54:04.383Z,15.70
2023-03-24T17:56:32.745Z,15.70
2023-03-24T17:59:00.325Z,15.60
2023-03-24T18:01:29.985Z,15.50
2023-03-24T18:03:58.779Z,15.50
2023-03-24T18:06:28.402Z,15.50
2023-03-24T18:08:56.116Z,15.40
2023-03-24T18:11:23.642Z,15.40
2023-03-24T18:13:52.307Z,15.40
2023-03-24T18:16:22.213Z,15.30
2023-03-24T18:18:52.104Z,15.30
2023-03-24T18:21:20.303Z,15.30
2023-03-24T18:23:49.163Z,15.30
2023-03-24T18:26:18.613Z,15.30
2023-03-24T18:28:50.378Z,15.20
2023-03-24T18:31:23.862Z,15.20
2023-03-24T18:33:53.387Z,15.20
2023-03-24T18:36:26.898Z,15.20
2023-03-24T18:39:07.938Z,15.20
2023-03-24T18:41:37.894Z,15.30
2023-03-24T18:44:08.815Z,15.30
2023-03-24T18:46:37.787Z,15.20
2023-03-24T18:49:06.809Z,15.20
2023-03-24T18:51:36.736Z,15.20
2023-03-24T18:54:07.541Z,15.20
2023-03-24T18:56:35.727Z,15.10
2023-03-24T18:59:04.452Z,15.10
2023-03-24T19:01:33.844Z,15.10
2023-03-24T19:04:02.068Z,15.10
2023-03-24T19:06:32.085Z,15.10
2023-03-24T19:09:00.694Z,15.10
2023-03-24T19:11:28.741Z,15.10
2023-03-24T19:13:57.825Z,15.10
2023-03-24T19:16:28.414Z,15.00
2023-03-24T19:18:58.740Z,15.00
2023-03-24T19:21:37.230Z,14.90
2023-03-24T19:24:11.649Z,14.90
2023-03-24T19:26:41.074Z,14.90
2023-03-24T19:29:09.079Z,14.80
2023-03-24T19:31:37.580Z,14.80
2023-03-24T19:34:06.619Z,14.80
2023-03-24T19:36:35.013Z,14.70
2023-03-24T19:39:02.983Z,14.70
2023-03-24T19:41:34.184Z,14.70
2023-03-24T19:44:02.115Z,14.70
2023-03-24T19:46:30.283Z,14.70
2023-03-24T19:48:58.338Z,14.70
2023-03-24T19:51:26.363Z,14.60
2023-03-24T19:53:55.389Z,14.60
2023-03-24T19:56:22.880Z,14.50
2023-03-24T19:58:50.942Z,14.50
2023-03-24T20:01:22.109Z,14.50
2023-03-24T20:03:51.367Z,14.50
2023-03-24T20:06:20.467Z,14.40
2023-03-24T20:08:51.911Z,14.40
2023-03-24T20:11:20.148Z,14.40
2023-03-24T20:13:48.406Z,14.30
2023-03-24T20:16:16.263Z,14.30
2023-03-24T20:18:44.393Z,14.20
2023-03-24T20:21:16.613Z,14.20
2023-03-24T20:23:44.876Z,14.20
2023-03-24T20:26:13.179Z,14.10
2023-03-24T20:28:41.550Z,14.10
2023-03-24T20:31:11.491Z,14.10
2023-03-24T20:33:46.346Z,14.00
2023-03-24T20:36:14.502Z,13.90
2023-03-24T20:38:43.643Z,13.80
2023-03-24T20:41:11.618Z,13.80
2023-03-24T20:43:39.859Z,13.90
2023-03-24T20:46:10.544Z,13.80
2023-03-24T20:48:38.393Z,13.90
2023-03-24T20:51:06.264Z,13.90
2023-03-24T20:53:35.954Z,13.90
2023-03-24T20:56:07.384Z,13.90
2023-03-24T20:58:37.641Z,13.90
2023-03-24T21:01:10.499Z,13.90
2023-03-24T21:03:38.416Z,13.90
2023-03-24T21:06:11.564Z,14.00
2023-03-24T21:08:44.619Z,14.00
2023-03-24T21:11:13.559Z,14.00
2023-03-24T21:13:41.825Z,14.00
2023-03-24T21:16:11.671Z,13.90
2023-03-24T21:18:43.146Z,14.00
2023-03-24T21:21:12.934Z,14.00
2023-03-24T21:23:41.906Z,14.00
2023-03-24T21:26:14.158Z,14.00
2023-03-24T21:28:42.269Z,14.00
2023-03-24T21:31:14.627Z,14.00
2023-03-24T21:33:44.380Z,14.00
2023-03-24T21:36:12.968Z,14.00
2023-03-24T21:38:41.260Z,14.00
2023-03-24T21:41:08.996Z,14.00
2023-03-24T21:43:36.782Z,14.00
2023-03-24T21:46:04.172Z,14.00
2023-03-24T21:48:35.191Z,14.00
2023-03-24T21:51:03.996Z,14.00
2023-03-24T21:53:31.104Z,14.00
2023-03-24T21:56:05.536Z,14.00
2023-03-24T21:58:33.762Z,14.00
2023-03-24T22:01:01.600Z,14.00
2023-03-24T22:03:28.907Z,14.10
2023-03-24T22:05:57.498Z,14.10
2023-03-24T22:08:27.038Z,14.10
2023-03-24T22:10:58.718Z,14.10
2023-03-24T22:13:27.741Z,14.10
2023-03-24T22:16:00.118Z,14.10
2023-03-24T22:18:29.799Z,14.10
2023-03-24T22:21:03.803Z,14.10
2023-03-24T22:23:36.921Z,14.10
2023-03-24T22:26:09.614Z,14.10
2023-03-24T22:28:38.279Z,14.10
2023-03-24T22:31:11.113Z,14.10
2023-03-24T22:33:38.745Z,14.20
2023-03-24T22:36:06.885Z,14.20
2023-03-24T22:38:34.697Z,14.20
2023-03-24T22:41:04.974Z,14.10
2023-03-24T22:43:32.490Z,14.10
2023-03-24T22:45:59.945Z,14.10
2023-03-24T22:48:26.958Z,14.10
2023-03-24T22:50:54.421Z,14.10
2023-03-24T22:53:21.714Z,14.00
2023-03-24T22:55:49.481Z,14.00
2023-03-24T22:58:16.976Z,14.00
2023-03-24T23:00:47.136Z,14.00
2023-03-24T23:03:14.368Z,13.90
2023-03-24T23:05:42.469Z,13.90
2023-03-24T23:08:09.986Z,13.90
2023-03-24T23:10:37.483Z,13.90
2023-03-24T23:13:04.743Z,13.80
2023-03-24T23:15:32.210Z,13.80
2023-03-24T23:18:00.115Z,13.70
2023-03-24T23:20:28.529Z,13.70
2023-03-24T23:22:56.470Z,13.70
2023-03-24T23:25:23.822Z,13.70
2023-03-24T23:27:50.959Z,13.70
2023-03-24T23:30:18.299Z,13.70
2023-03-24T23:32:47.479Z,13.60
2023-03-24T23:35:15.801Z,13.60
2023-03-24T23:37:43.077Z,13.60
2023-03-24T23:40:15.082Z,13.50
2023-03-24T23:42:47.178Z,13.50
2023-03-24T23:45:18.141Z,13.50
2023-03-24T23:47:50.865Z,13.40
2023-03-24T23:50:19.916Z,13.40
2023-03-24T23:52:48.085Z,13.50
2023-03-24T23:55:18.015Z,13.40
2023-03-24T23:57:46.620Z,13.40
